Herminie, Pennsylvania
Current Conditions -  °F | °C
As of 1:53 AM on Saturday 25 Oct 2014 (Local Time) from KAGC Reporting Station
Overcast Overcast  
Wind Chill: 44°   Ceiling: 4500
Heat Index: 48°   Visibility: 10mi
Dew Point: 37°   Wind: 8mph
Humidity: 66%   Direction: 190°S
Pressure: 29.99"   Gusts: NA
Location:  40.26°N, 79.72°W
Report Text: KAGC 250553Z 19007KT 10SM OVC045 09/03 A2999 RMK AO2 SLP163 T00890028 10117 20078 56005
Loading
Personal Weather Stations






























Interactive Weather Map
Tropical Storm Tracking
New forecast layout! Learn more

10-Day Weather Forecast

Advertisements
Track Severe Weather on mobile